createdAt,value
2022-12-11T00:00:17.263Z,38.85
2022-12-11T00:04:18.801Z,25.95
2022-12-11T00:08:18.293Z,22.63
2022-12-11T00:12:17.903Z,19.85
2022-12-11T00:16:19.531Z,10.63
2022-12-11T00:20:24.423Z,10.95
2022-12-11T00:24:23.975Z,6.60
2022-12-11T00:28:23.576Z,5.60
2022-12-11T00:32:22.564Z,5.60
2022-12-11T00:36:26.708Z,5.38
2022-12-11T00:40:26.180Z,4.78
2022-12-11T00:44:25.676Z,4.38
2022-12-11T00:48:25.205Z,3.92
2022-12-11T00:52:26.842Z,3.42
2022-12-11T00:56:26.416Z,4.20
2022-12-11T01:00:26.829Z,8.50
2022-12-11T01:04:26.458Z,5.55
2022-12-11T01:08:28.281Z,6.57
2022-12-11T01:12:28.235Z,7.97
2022-12-11T01:16:27.950Z,6.85
2022-12-11T01:20:29.374Z,5.60
2022-12-11T01:24:30.995Z,5.15
2022-12-11T01:28:30.570Z,7.13
2022-12-11T01:32:30.764Z,34.60
2022-12-11T01:36:30.308Z,9.57
2022-12-11T01:40:32.427Z,7.72
2022-12-11T01:45:09.297Z,6.60
2022-12-11T01:49:13.021Z,5.03
2022-12-11T01:53:16.084Z,5.78
2022-12-11T01:57:18.367Z,7.30
2022-12-11T02:01:24.703Z,6.32
2022-12-11T02:05:24.328Z,9.50
2022-12-11T02:09:27.304Z,6.50
2022-12-11T02:13:36.870Z,9.20
2022-12-11T02:17:42.819Z,7.35
2022-12-11T02:21:45.682Z,6.60
2022-12-11T02:25:54.350Z,8.90
2022-12-11T02:30:03.118Z,7.22
2022-12-11T02:34:06.957Z,8.20
2022-12-11T02:38:10.648Z,7.72
2022-12-11T02:42:11.830Z,7.65
2022-12-11T02:46:14.371Z,6.57
2022-12-11T02:50:19.047Z,6.25
2022-12-11T02:54:22.458Z,7.40
2022-12-11T02:58:24.828Z,7.00
2022-12-11T03:02:26.654Z,7.40
2022-12-11T03:06:31.269Z,6.10
2022-12-11T03:10:30.763Z,5.75
2022-12-11T03:14:30.310Z,6.30
2022-12-11T03:18:37.053Z,4.88
2022-12-11T03:22:42.584Z,4.78
2022-12-11T03:26:46.230Z,7.13
2022-12-11T03:30:47.252Z,5.13
2022-12-11T03:34:58.482Z,4.65
2022-12-11T03:39:00.545Z,4.53
2022-12-11T03:43:00.574Z,5.40
2022-12-11T03:47:02.098Z,5.13
2022-12-11T03:51:06.941Z,4.07
2022-12-11T03:55:08.890Z,4.07
2022-12-11T03:59:08.587Z,3.25
2022-12-11T04:03:17.577Z,4.45
2022-12-11T04:07:19.136Z,3.13
2022-12-11T04:11:36.510Z,3.22
2022-12-11T04:15:36.158Z,3.05
2022-12-11T04:19:52.259Z,3.15
2022-12-11T04:24:09.990Z,2.85
2022-12-11T04:28:09.661Z,2.17
2022-12-11T04:32:09.093Z,8.95
2022-12-11T04:36:09.639Z,3.30
2022-12-11T04:40:15.189Z,3.05
2022-12-11T04:44:16.811Z,2.40
2022-12-11T04:48:16.280Z,3.10
2022-12-11T04:52:15.863Z,2.70
2022-12-11T04:56:18.486Z,3.10
2022-12-11T05:00:19.289Z,3.08
2022-12-11T05:04:18.771Z,2.70
2022-12-11T05:08:18.833Z,3.85
2022-12-11T05:12:20.561Z,2.08
2022-12-11T05:16:20.177Z,2.33
2022-12-11T05:20:19.822Z,2.65
2022-12-11T05:24:19.390Z,5.00
2022-12-11T05:28:20.976Z,2.92
2022-12-11T05:32:20.728Z,2.95
2022-12-11T05:36:22.926Z,3.90
2022-12-11T05:40:22.377Z,3.78
2022-12-11T05:44:24.339Z,3.97
2022-12-11T05:48:23.888Z,3.15
2022-12-11T05:52:23.471Z,3.75
2022-12-11T05:56:26.023Z,3.28
2022-12-11T06:00:31.538Z,3.40
2022-12-11T06:04:33.963Z,3.33
2022-12-11T06:08:33.539Z,3.92
2022-12-11T06:12:33.377Z,3.50
2022-12-11T06:16:35.127Z,2.85
2022-12-11T06:20:35.281Z,3.35
2022-12-11T06:24:34.712Z,3.03
2022-12-11T06:28:34.152Z,3.63
2022-12-11T06:32:35.783Z,3.28
2022-12-11T06:36:35.362Z,3.20
2022-12-11T06:40:34.856Z,4.90
2022-12-11T06:44:34.382Z,4.20
2022-12-11T06:48:36.466Z,6.10
2022-12-11T06:52:36.956Z,4.65
2022-12-11T06:56:37.423Z,3.03
2022-12-11T07:00:37.509Z,5.13
2022-12-11T07:04:38.682Z,4.13
2022-12-11T07:08:38.290Z,3.75
2022-12-11T07:12:38.142Z,3.30
2022-12-11T07:16:39.819Z,4.22
2022-12-11T07:20:41.025Z,4.22
2022-12-11T07:24:40.565Z,4.15
2022-12-11T07:28:40.051Z,4.40
2022-12-11T07:36:40.297Z,3.73
2022-12-11T07:40:39.816Z,4.00
2022-12-11T07:44:39.359Z,4.25
2022-12-11T07:48:39.948Z,5.45
2022-12-11T07:52:41.752Z,4.32
2022-12-11T07:56:43.866Z,5.32
2022-12-11T08:00:43.255Z,4.03
2022-12-11T08:04:43.054Z,6.68
2022-12-11T08:08:45.247Z,6.20
2022-12-11T08:12:44.886Z,4.68
2022-12-11T08:16:44.726Z,5.20
2022-12-11T08:20:44.345Z,3.78
2022-12-11T08:24:46.318Z,5.55
2022-12-11T08:28:46.082Z,4.43
2022-12-11T08:32:45.573Z,3.50
2022-12-11T08:36:46.586Z,3.83
2022-12-11T08:40:48.320Z,5.53
2022-12-11T08:44:47.863Z,3.92
2022-12-11T08:48:47.691Z,2.85
2022-12-11T08:52:47.488Z,3.40
2022-12-11T08:56:51.310Z,3.13
2022-12-11T09:00:53.295Z,3.47
2022-12-11T09:04:52.600Z,2.70
2022-12-11T09:08:56.062Z,3.65
2022-12-11T09:12:57.306Z,3.40
2022-12-11T09:16:56.888Z,2.72
2022-12-11T09:21:03.123Z,2.90
2022-12-11T09:25:02.699Z,2.42
2022-12-11T09:29:05.238Z,2.83
2022-12-11T09:33:04.787Z,3.00
2022-12-11T09:37:04.338Z,3.55
2022-12-11T09:41:04.465Z,4.47
2022-12-11T09:45:07.262Z,4.07
2022-12-11T09:49:16.352Z,2.90
2022-12-11T09:53:20.527Z,2.45
2022-12-11T09:57:34.237Z,3.03
2022-12-11T10:01:44.156Z,2.85
2022-12-11T10:05:51.070Z,3.25
2022-12-11T10:09:58.524Z,3.35
2022-12-11T10:14:08.684Z,3.58
2022-12-11T10:18:16.808Z,3.60
2022-12-11T10:22:23.025Z,3.75
2022-12-11T10:26:23.828Z,4.07
2022-12-11T10:30:30.401Z,6.18
2022-12-11T10:34:37.243Z,4.60
2022-12-11T10:38:42.431Z,4.13
2022-12-11T10:42:45.607Z,9.43
2022-12-11T10:46:46.320Z,5.68
2022-12-11T10:50:59.136Z,5.50
2022-12-11T10:55:02.090Z,5.25
2022-12-11T10:59:03.209Z,4.93
2022-12-11T11:03:04.273Z,5.18
2022-12-11T11:07:14.524Z,5.05
2022-12-11T11:11:28.825Z,6.97
2022-12-11T11:15:30.299Z,5.72
2022-12-11T11:19:36.950Z,6.68
2022-12-11T11:23:46.321Z,9.25
2022-12-11T11:27:53.657Z,10.77
2022-12-11T11:31:53.423Z,9.25
2022-12-11T11:40:04.963Z,8.43
2022-12-11T11:44:08.950Z,8.55
2022-12-11T11:54:13.071Z,10.43
2022-12-11T11:58:36.317Z,11.02
2022-12-11T12:02:35.786Z,11.02
2022-12-11T12:07:02.708Z,9.48
2022-12-11T12:11:13.413Z,7.88
2022-12-11T12:15:47.641Z,8.05
2022-12-11T12:19:58.217Z,8.52
2022-12-11T12:25:10.059Z,8.77
2022-12-11T12:29:30.908Z,12.13
2022-12-11T12:33:47.387Z,11.20
2022-12-11T12:37:59.122Z,11.02
2022-12-11T12:42:08.195Z,15.23
2022-12-11T12:50:27.168Z,13.32
2022-12-11T12:54:39.156Z,15.32
2022-12-11T12:58:48.442Z,13.48
2022-12-11T13:03:03.733Z,13.45
2022-12-11T13:07:25.511Z,11.60
2022-12-11T13:11:36.246Z,13.00
2022-12-11T13:15:43.514Z,16.20
2022-12-11T13:23:51.487Z,11.93
2022-12-11T13:27:51.967Z,10.15
2022-12-11T13:32:00.915Z,6.22
2022-12-11T13:36:30.886Z,4.65
2022-12-11T13:40:40.090Z,3.35
2022-12-11T13:44:43.886Z,7.07
2022-12-11T13:48:49.704Z,2.67
2022-12-11T13:52:56.100Z,2.60
2022-12-11T13:57:17.679Z,2.28
2022-12-11T14:01:23.293Z,2.83
2022-12-11T14:05:27.365Z,2.55
2022-12-11T14:09:29.662Z,4.22
2022-12-11T14:13:41.666Z,2.45
2022-12-11T14:17:51.355Z,2.53
2022-12-11T14:22:03.445Z,3.50
2022-12-11T14:26:17.330Z,3.42
2022-12-11T14:30:27.033Z,5.30
2022-12-11T14:38:32.102Z,6.28
2022-12-11T14:42:35.926Z,4.10
2022-12-11T14:46:46.069Z,9.95
2022-12-11T14:50:50.049Z,12.18
2022-12-11T14:54:56.636Z,6.63
2022-12-11T14:59:00.467Z,4.22
2022-12-11T15:03:14.211Z,3.03
2022-12-11T15:07:27.495Z,3.67
2022-12-11T15:11:37.051Z,4.47
2022-12-11T15:15:48.258Z,4.28
2022-12-11T15:19:56.876Z,6.80
2022-12-11T15:24:02.638Z,5.07
2022-12-11T15:28:04.893Z,7.15
2022-12-11T15:32:26.247Z,7.68
2022-12-11T15:36:48.671Z,8.57
2022-12-11T15:40:57.816Z,4.80
2022-12-11T15:44:58.286Z,5.47
2022-12-11T15:48:59.733Z,6.15
2022-12-11T15:53:27.161Z,4.70
2022-12-11T15:57:34.092Z,3.95
2022-12-11T16:01:34.213Z,3.25
2022-12-11T16:05:33.969Z,4.65
2022-12-11T16:09:45.999Z,4.65
2022-12-11T16:13:46.142Z,3.78
2022-12-11T16:17:49.370Z,3.45
2022-12-11T16:21:49.734Z,3.80
2022-12-11T16:25:52.258Z,2.85
2022-12-11T16:29:51.979Z,3.63
2022-12-11T16:33:52.552Z,3.13
2022-12-11T16:37:56.694Z,3.53
2022-12-11T16:42:06.595Z,4.40
2022-12-11T16:46:14.857Z,3.83
2022-12-11T16:54:23.627Z,3.78
2022-12-11T16:58:35.270Z,3.75
2022-12-11T17:07:33.154Z,3.72
2022-12-11T17:11:34.597Z,4.13
2022-12-11T17:15:46.057Z,4.10
2022-12-11T17:20:13.884Z,6.78
2022-12-11T17:24:18.437Z,5.65
2022-12-11T17:28:18.599Z,4.68
2022-12-11T17:32:24.863Z,12.93
2022-12-11T17:36:27.349Z,4.88
2022-12-11T17:40:27.625Z,6.07
2022-12-11T17:44:30.058Z,6.28
2022-12-11T17:48:32.342Z,5.95
2022-12-11T17:52:44.005Z,17.83
2022-12-11T17:56:44.824Z,7.03
2022-12-11T18:00:57.985Z,6.00
2022-12-11T18:05:03.623Z,5.75
2022-12-11T18:09:03.207Z,5.60
2022-12-11T18:13:07.846Z,4.97
2022-12-11T18:17:57.406Z,5.47
2022-12-11T18:22:25.022Z,5.95
2022-12-11T18:26:34.165Z,6.22
2022-12-11T18:30:43.510Z,7.65
2022-12-11T18:34:49.209Z,6.18
2022-12-11T18:38:52.101Z,6.07
2022-12-11T18:43:20.211Z,13.18
2022-12-11T18:47:25.495Z,6.00
2022-12-11T18:51:27.003Z,5.40
2022-12-11T18:55:34.129Z,8.65
2022-12-11T18:59:34.968Z,11.63
2022-12-11T19:03:34.521Z,8.38
2022-12-11T19:07:34.423Z,6.70
2022-12-11T19:11:41.045Z,11.98
2022-12-11T19:15:42.215Z,6.15
2022-12-11T19:19:42.856Z,7.93
2022-12-11T19:23:43.228Z,7.32
2022-12-11T19:27:49.770Z,10.00
2022-12-11T19:31:49.871Z,10.95
2022-12-11T19:35:49.760Z,9.95
2022-12-11T19:39:49.728Z,6.72
2022-12-11T19:43:53.143Z,8.35
2022-12-11T19:47:54.379Z,7.80
2022-12-11T19:51:54.120Z,7.78
2022-12-11T19:55:55.108Z,7.13
2022-12-11T19:59:57.506Z,7.05
2022-12-11T20:03:59.811Z,6.70
2022-12-11T20:08:27.360Z,9.77
2022-12-11T20:12:20.079Z,12.23
2022-12-11T20:16:39.214Z,8.75
2022-12-11T20:20:41.977Z,8.77
2022-12-11T20:24:41.649Z,8.30
2022-12-11T20:28:41.707Z,7.88
2022-12-11T20:32:45.729Z,36.20
2022-12-11T20:36:45.691Z,25.25
2022-12-11T20:40:48.010Z,14.85
2022-12-11T20:44:49.375Z,8.40
2022-12-11T20:48:51.635Z,9.25
2022-12-11T20:52:54.049Z,11.07
2022-12-11T20:56:59.473Z,10.25
2022-12-11T21:00:59.261Z,10.18
2022-12-11T21:05:01.210Z,8.93
2022-12-11T21:09:00.677Z,9.68
2022-12-11T21:13:00.364Z,10.15
2022-12-11T21:21:01.989Z,12.93
2022-12-11T21:25:01.821Z,10.15
2022-12-11T21:29:01.643Z,9.93
2022-12-11T21:33:02.636Z,7.70
2022-12-11T21:37:04.471Z,14.20
2022-12-11T21:41:10.177Z,8.88
2022-12-11T21:49:29.988Z,9.18
2022-12-11T21:53:31.668Z,8.88
2022-12-11T21:57:30.975Z,10.15
2022-12-11T22:01:34.536Z,9.75
2022-12-11T22:05:34.350Z,9.80
2022-12-11T22:09:36.079Z,11.90
2022-12-11T22:13:35.825Z,11.35
2022-12-11T22:17:36.727Z,11.70
2022-12-11T22:21:36.330Z,11.80
2022-12-11T22:29:37.389Z,12.73
2022-12-11T22:33:36.534Z,12.18
2022-12-11T22:41:41.726Z,13.05
2022-12-11T22:45:42.135Z,13.82
2022-12-11T22:49:42.278Z,12.75
2022-12-11T22:57:43.273Z,10.75
2022-12-11T23:01:43.027Z,13.63
2022-12-11T23:05:42.928Z,12.88
2022-12-11T23:09:42.599Z,12.00
2022-12-11T23:17:44.089Z,12.45
2022-12-11T23:25:43.703Z,11.73
2022-12-11T23:29:45.406Z,13.93
2022-12-11T23:33:47.740Z,13.13
2022-12-11T23:37:47.316Z,13.02
2022-12-11T23:41:47.595Z,12.52
2022-12-11T23:45:50.233Z,12.13
2022-12-11T23:49:49.809Z,16.60
2022-12-11T23:53:51.712Z,12.65
2022-12-11T23:57:51.245Z,14.25
